sensor_id;sensor_type;location;lat;lon;timestamp;P1;durP1;ratioP1;P2;durP2;ratioP2
46348;SDS011;32057;47.830;19.046;2023-10-08T00:03:19;3.88;;;1.58;;
46348;SDS011;32057;47.830;19.046;2023-10-08T00:05:45;2.28;;;1.50;;
46348;SDS011;32057;47.830;19.046;2023-10-08T00:08:12;4.32;;;1.42;;
46348;SDS011;32057;47.830;19.046;2023-10-08T00:10:40;2.25;;;1.05;;
46348;SDS011;32057;47.830;19.046;2023-10-08T00:13:13;13.35;;;3.97;;
46348;SDS011;32057;47.830;19.046;2023-10-08T00:15:41;2.17;;;1.55;;
46348;SDS011;32057;47.830;19.046;2023-10-08T00:18:15;2.78;;;1.13;;
46348;SDS011;32057;47.830;19.046;2023-10-08T00:20:42;1.80;;;1.23;;
46348;SDS011;32057;47.830;19.046;2023-10-08T00:23:12;3.00;;;1.63;;
46348;SDS011;32057;47.830;19.046;2023-10-08T00:25:40;2.50;;;1.50;;
46348;SDS011;32057;47.830;19.046;2023-10-08T00:28:08;9.52;;;2.05;;
46348;SDS011;32057;47.830;19.046;2023-10-08T00:30:38;2.72;;;1.30;;
46348;SDS011;32057;47.830;19.046;2023-10-08T00:33:07;2.20;;;1.90;;
46348;SDS011;32057;47.830;19.046;2023-10-08T00:35:36;1.30;;;1.10;;
46348;SDS011;32057;47.830;19.046;2023-10-08T00:38:06;4.78;;;1.83;;
46348;SDS011;32057;47.830;19.046;2023-10-08T00:40:43;3.03;;;1.42;;
46348;SDS011;32057;47.830;19.046;2023-10-08T00:43:32;1.13;;;1.02;;
46348;SDS011;32057;47.830;19.046;2023-10-08T00:45:58;1.52;;;1.40;;
46348;SDS011;32057;47.830;19.046;2023-10-08T00:48:25;4.40;;;1.80;;
46348;SDS011;32057;47.830;19.046;2023-10-08T00:50:57;2.90;;;1.55;;
46348;SDS011;32057;47.830;19.046;2023-10-08T00:53:35;3.80;;;1.73;;
46348;SDS011;32057;47.830;19.046;2023-10-08T00:56:05;3.55;;;1.67;;
46348;SDS011;32057;47.830;19.046;2023-10-08T00:58:41;3.90;;;1.52;;
46348;SDS011;32057;47.830;19.046;2023-10-08T01:01:06;3.03;;;1.13;;
46348;SDS011;32057;47.830;19.046;2023-10-08T01:03:35;2.08;;;1.38;;
46348;SDS011;32057;47.830;19.046;2023-10-08T01:06:01;3.10;;;1.70;;
46348;SDS011;32057;47.830;19.046;2023-10-08T01:08:28;7.38;;;1.40;;
46348;SDS011;32057;47.830;19.046;2023-10-08T01:13:42;1.30;;;0.85;;
46348;SDS011;32057;47.830;19.046;2023-10-08T01:16:09;1.25;;;1.10;;
46348;SDS011;32057;47.830;19.046;2023-10-08T01:18:35;4.85;;;1.95;;
46348;SDS011;32057;47.830;19.046;2023-10-08T01:21:02;2.08;;;1.63;;
46348;SDS011;32057;47.830;19.046;2023-10-08T01:23:36;1.65;;;1.48;;
46348;SDS011;32057;47.830;19.046;2023-10-08T01:26:03;2.90;;;1.10;;
46348;SDS011;32057;47.830;19.046;2023-10-08T01:28:40;8.15;;;1.40;;
46348;SDS011;32057;47.830;19.046;2023-10-08T01:31:05;2.15;;;1.65;;
46348;SDS011;32057;47.830;19.046;2023-10-08T01:33:32;3.08;;;1.65;;
46348;SDS011;32057;47.830;19.046;2023-10-08T01:36:04;2.63;;;1.20;;
46348;SDS011;32057;47.830;19.046;2023-10-08T01:38:30;2.30;;;1.73;;
46348;SDS011;32057;47.830;19.046;2023-10-08T01:40:58;4.68;;;1.95;;
46348;SDS011;32057;47.830;19.046;2023-10-08T01:43:28;4.78;;;2.33;;
46348;SDS011;32057;47.830;19.046;2023-10-08T01:45:54;3.58;;;1.13;;
46348;SDS011;32057;47.830;19.046;2023-10-08T01:48:20;3.25;;;2.42;;
46348;SDS011;32057;47.830;19.046;2023-10-08T01:50:55;1.08;;;0.82;;
46348;SDS011;32057;47.830;19.046;2023-10-08T01:53:26;8.20;;;1.50;;
46348;SDS011;32057;47.830;19.046;2023-10-08T01:55:52;2.53;;;1.10;;
46348;SDS011;32057;47.830;19.046;2023-10-08T01:58:19;3.22;;;2.92;;
46348;SDS011;32057;47.830;19.046;2023-10-08T02:00:45;2.88;;;2.15;;
46348;SDS011;32057;47.830;19.046;2023-10-08T02:03:15;5.28;;;1.45;;
46348;SDS011;32057;47.830;19.046;2023-10-08T02:05:43;1.70;;;1.10;;
46348;SDS011;32057;47.830;19.046;2023-10-08T02:08:12;4.68;;;1.15;;
46348;SDS011;32057;47.830;19.046;2023-10-08T02:10:39;3.30;;;1.65;;
46348;SDS011;32057;47.830;19.046;2023-10-08T02:13:07;5.22;;;2.25;;
46348;SDS011;32057;47.830;19.046;2023-10-08T02:15:33;3.08;;;1.40;;
46348;SDS011;32057;47.830;19.046;2023-10-08T02:18:00;3.95;;;1.60;;
46348;SDS011;32057;47.830;19.046;2023-10-08T02:20:25;6.60;;;1.90;;
46348;SDS011;32057;47.830;19.046;2023-10-08T02:22:52;2.17;;;1.20;;
46348;SDS011;32057;47.830;19.046;2023-10-08T02:25:19;2.60;;;1.20;;
46348;SDS011;32057;47.830;19.046;2023-10-08T02:27:44;2.60;;;1.50;;
46348;SDS011;32057;47.830;19.046;2023-10-08T02:30:09;3.25;;;1.52;;
46348;SDS011;32057;47.830;19.046;2023-10-08T02:32:37;1.60;;;1.23;;
46348;SDS011;32057;47.830;19.046;2023-10-08T02:35:05;4.45;;;1.85;;
46348;SDS011;32057;47.830;19.046;2023-10-08T02:37:30;2.33;;;1.13;;
46348;SDS011;32057;47.830;19.046;2023-10-08T02:39:56;3.35;;;1.50;;
46348;SDS011;32057;47.830;19.046;2023-10-08T02:42:22;2.13;;;1.23;;
46348;SDS011;32057;47.830;19.046;2023-10-08T02:44:49;0.80;;;0.80;;
46348;SDS011;32057;47.830;19.046;2023-10-08T02:47:16;4.80;;;1.73;;
46348;SDS011;32057;47.830;19.046;2023-10-08T02:49:45;5.10;;;1.77;;
46348;SDS011;32057;47.830;19.046;2023-10-08T02:52:13;3.97;;;1.70;;
46348;SDS011;32057;47.830;19.046;2023-10-08T02:54:40;2.00;;;1.35;;
46348;SDS011;32057;47.830;19.046;2023-10-08T02:57:06;2.92;;;1.08;;
46348;SDS011;32057;47.830;19.046;2023-10-08T02:59:39;3.63;;;1.40;;
46348;SDS011;32057;47.830;19.046;2023-10-08T03:02:09;3.05;;;1.95;;
46348;SDS011;32057;47.830;19.046;2023-10-08T03:04:53;10.23;;;1.92;;
46348;SDS011;32057;47.830;19.046;2023-10-08T03:07:19;6.03;;;1.55;;
46348;SDS011;32057;47.830;19.046;2023-10-08T03:09:57;1.45;;;1.10;;
46348;SDS011;32057;47.830;19.046;2023-10-08T03:12:42;5.30;;;1.05;;
46348;SDS011;32057;47.830;19.046;2023-10-08T03:15:11;3.90;;;1.50;;
46348;SDS011;32057;47.830;19.046;2023-10-08T03:17:56;3.80;;;1.20;;
46348;SDS011;32057;47.830;19.046;2023-10-08T03:20:35;3.45;;;1.58;;
46348;SDS011;32057;47.830;19.046;2023-10-08T03:23:04;3.90;;;1.45;;
46348;SDS011;32057;47.830;19.046;2023-10-08T03:25:55;8.68;;;2.00;;
46348;SDS011;32057;47.830;19.046;2023-10-08T03:28:42;2.92;;;1.25;;
46348;SDS011;32057;47.830;19.046;2023-10-08T03:31:08;6.82;;;1.42;;
46348;SDS011;32057;47.830;19.046;2023-10-08T03:33:42;3.15;;;1.45;;
46348;SDS011;32057;47.830;19.046;2023-10-08T03:36:08;3.63;;;1.98;;
46348;SDS011;32057;47.830;19.046;2023-10-08T03:38:38;4.88;;;2.15;;
46348;SDS011;32057;47.830;19.046;2023-10-08T03:41:11;8.67;;;1.90;;
46348;SDS011;32057;47.830;19.046;2023-10-08T03:43:42;4.88;;;1.58;;
46348;SDS011;32057;47.830;19.046;2023-10-08T03:46:29;3.13;;;1.63;;
46348;SDS011;32057;47.830;19.046;2023-10-08T03:48:56;1.95;;;1.23;;
46348;SDS011;32057;47.830;19.046;2023-10-08T03:51:22;4.38;;;1.95;;
46348;SDS011;32057;47.830;19.046;2023-10-08T03:53:52;2.83;;;1.40;;
46348;SDS011;32057;47.830;19.046;2023-10-08T03:56:32;1.35;;;0.80;;
46348;SDS011;32057;47.830;19.046;2023-10-08T03:59:01;2.03;;;1.30;;
46348;SDS011;32057;47.830;19.046;2023-10-08T04:01:38;3.78;;;1.50;;
46348;SDS011;32057;47.830;19.046;2023-10-08T04:04:05;1.80;;;1.50;;
46348;SDS011;32057;47.830;19.046;2023-10-08T04:06:31;1.27;;;1.13;;
46348;SDS011;32057;47.830;19.046;2023-10-08T04:09:00;1.95;;;0.82;;
46348;SDS011;32057;47.830;19.046;2023-10-08T04:11:34;2.88;;;1.30;;
46348;SDS011;32057;47.830;19.046;2023-10-08T04:14:26;2.90;;;1.48;;
46348;SDS011;32057;47.830;19.046;2023-10-08T04:16:53;6.70;;;1.40;;
46348;SDS011;32057;47.830;19.046;2023-10-08T04:19:19;2.75;;;1.27;;
46348;SDS011;32057;47.830;19.046;2023-10-08T04:21:46;3.33;;;1.60;;
46348;SDS011;32057;47.830;19.046;2023-10-08T04:24:19;2.70;;;1.38;;
46348;SDS011;32057;47.830;19.046;2023-10-08T04:26:46;5.30;;;2.40;;
46348;SDS011;32057;47.830;19.046;2023-10-08T04:29:11;4.05;;;1.60;;
46348;SDS011;32057;47.830;19.046;2023-10-08T04:31:41;4.47;;;2.22;;
46348;SDS011;32057;47.830;19.046;2023-10-08T04:34:11;2.35;;;1.05;;
46348;SDS011;32057;47.830;19.046;2023-10-08T04:36:42;1.35;;;0.90;;
46348;SDS011;32057;47.830;19.046;2023-10-08T04:39:10;3.17;;;1.65;;
46348;SDS011;32057;47.830;19.046;2023-10-08T04:41:42;1.35;;;0.80;;
46348;SDS011;32057;47.830;19.046;2023-10-08T04:44:11;1.70;;;1.25;;
46348;SDS011;32057;47.830;19.046;2023-10-08T04:46:41;2.73;;;1.33;;
46348;SDS011;32057;47.830;19.046;2023-10-08T04:49:17;6.63;;;2.17;;
46348;SDS011;32057;47.830;19.046;2023-10-08T04:51:54;1.08;;;0.93;;
46348;SDS011;32057;47.830;19.046;2023-10-08T04:54:26;3.30;;;1.17;;
46348;SDS011;32057;47.830;19.046;2023-10-08T04:56:59;2.20;;;1.10;;
46348;SDS011;32057;47.830;19.046;2023-10-08T04:59:26;4.13;;;1.60;;
46348;SDS011;32057;47.830;19.046;2023-10-08T05:02:04;1.37;;;1.27;;
46348;SDS011;32057;47.830;19.046;2023-10-08T05:04:46;2.20;;;1.30;;
46348;SDS011;32057;47.830;19.046;2023-10-08T05:07:31;1.73;;;1.40;;
46348;SDS011;32057;47.830;19.046;2023-10-08T05:10:12;2.75;;;0.90;;
46348;SDS011;32057;47.830;19.046;2023-10-08T05:12:48;3.40;;;1.38;;
46348;SDS011;32057;47.830;19.046;2023-10-08T05:15:26;3.05;;;1.92;;
46348;SDS011;32057;47.830;19.046;2023-10-08T05:18:06;2.75;;;1.58;;
46348;SDS011;32057;47.830;19.046;2023-10-08T05:20:44;3.15;;;1.85;;
46348;SDS011;32057;47.830;19.046;2023-10-08T05:23:17;3.00;;;1.50;;
46348;SDS011;32057;47.830;19.046;2023-10-08T05:25:50;3.42;;;1.80;;
46348;SDS011;32057;47.830;19.046;2023-10-08T05:28:39;1.73;;;1.15;;
46348;SDS011;32057;47.830;19.046;2023-10-08T05:31:33;2.45;;;1.20;;
46348;SDS011;32057;47.830;19.046;2023-10-08T05:34:12;2.60;;;1.33;;
46348;SDS011;32057;47.830;19.046;2023-10-08T05:36:58;2.60;;;1.08;;
46348;SDS011;32057;47.830;19.046;2023-10-08T05:39:29;3.05;;;1.63;;
46348;SDS011;32057;47.830;19.046;2023-10-08T05:42:05;3.38;;;1.52;;
46348;SDS011;32057;47.830;19.046;2023-10-08T05:44:45;3.42;;;1.35;;
46348;SDS011;32057;47.830;19.046;2023-10-08T05:47:12;2.80;;;1.55;;
46348;SDS011;32057;47.830;19.046;2023-10-08T05:49:56;2.35;;;1.05;;
46348;SDS011;32057;47.830;19.046;2023-10-08T05:52:41;2.78;;;0.98;;
46348;SDS011;32057;47.830;19.046;2023-10-08T05:55:22;1.38;;;0.85;;
46348;SDS011;32057;47.830;19.046;2023-10-08T05:57:55;3.22;;;1.42;;
46348;SDS011;32057;47.830;19.046;2023-10-08T06:00:59;3.38;;;2.67;;
46348;SDS011;32057;47.830;19.046;2023-10-08T06:03:34;3.05;;;2.13;;
46348;SDS011;32057;47.830;19.046;2023-10-08T06:06:22;3.80;;;2.10;;
46348;SDS011;32057;47.830;19.046;2023-10-08T06:08:49;5.32;;;1.75;;
46348;SDS011;32057;47.830;19.046;2023-10-08T06:11:33;3.42;;;2.05;;
46348;SDS011;32057;47.830;19.046;2023-10-08T06:14:06;3.00;;;1.35;;
46348;SDS011;32057;47.830;19.046;2023-10-08T06:16:42;2.88;;;1.40;;
46348;SDS011;32057;47.830;19.046;2023-10-08T06:19:12;1.90;;;1.30;;
46348;SDS011;32057;47.830;19.046;2023-10-08T06:21:39;5.72;;;1.80;;
46348;SDS011;32057;47.830;19.046;2023-10-08T06:24:06;5.15;;;1.48;;
46348;SDS011;32057;47.830;19.046;2023-10-08T06:26:38;2.55;;;1.48;;
46348;SDS011;32057;47.830;19.046;2023-10-08T06:29:07;1.40;;;1.20;;
46348;SDS011;32057;47.830;19.046;2023-10-08T06:31:46;3.42;;;1.23;;
46348;SDS011;32057;47.830;19.046;2023-10-08T06:34:16;8.73;;;1.50;;
46348;SDS011;32057;47.830;19.046;2023-10-08T06:36:46;5.05;;;1.48;;
46348;SDS011;32057;47.830;19.046;2023-10-08T06:39:22;5.10;;;1.38;;
46348;SDS011;32057;47.830;19.046;2023-10-08T06:41:58;3.67;;;1.73;;
46348;SDS011;32057;47.830;19.046;2023-10-08T06:44:24;3.50;;;1.08;;
46348;SDS011;32057;47.830;19.046;2023-10-08T06:46:49;2.60;;;1.38;;
46348;SDS011;32057;47.830;19.046;2023-10-08T06:49:17;2.42;;;1.40;;
46348;SDS011;32057;47.830;19.046;2023-10-08T06:51:43;3.17;;;1.70;;
46348;SDS011;32057;47.830;19.046;2023-10-08T06:54:09;2.80;;;1.50;;
46348;SDS011;32057;47.830;19.046;2023-10-08T06:56:38;3.65;;;1.60;;
46348;SDS011;32057;47.830;19.046;2023-10-08T06:59:04;2.80;;;1.80;;
46348;SDS011;32057;47.830;19.046;2023-10-08T07:01:30;3.33;;;1.33;;
46348;SDS011;32057;47.830;19.046;2023-10-08T07:04:05;3.28;;;1.27;;
46348;SDS011;32057;47.830;19.046;2023-10-08T07:06:36;11.80;;;1.88;;
46348;SDS011;32057;47.830;19.046;2023-10-08T07:09:02;3.55;;;1.45;;
46348;SDS011;32057;47.830;19.046;2023-10-08T07:11:34;1.70;;;1.38;;
46348;SDS011;32057;47.830;19.046;2023-10-08T07:14:04;3.53;;;1.33;;
46348;SDS011;32057;47.830;19.046;2023-10-08T07:16:33;2.30;;;1.55;;
46348;SDS011;32057;47.830;19.046;2023-10-08T07:18:59;6.78;;;1.75;;
46348;SDS011;32057;47.830;19.046;2023-10-08T07:21:30;3.10;;;1.50;;
46348;SDS011;32057;47.830;19.046;2023-10-08T07:24:09;1.60;;;1.38;;
46348;SDS011;32057;47.830;19.046;2023-10-08T07:26:40;4.97;;;1.50;;
46348;SDS011;32057;47.830;19.046;2023-10-08T07:29:11;2.70;;;1.55;;
46348;SDS011;32057;47.830;19.046;2023-10-08T07:31:39;11.15;;;2.17;;
46348;SDS011;32057;47.830;19.046;2023-10-08T07:34:07;2.15;;;1.23;;
46348;SDS011;32057;47.830;19.046;2023-10-08T07:36:48;5.13;;;1.30;;
46348;SDS011;32057;47.830;19.046;2023-10-08T07:39:18;3.58;;;1.85;;
46348;SDS011;32057;47.830;19.046;2023-10-08T07:41:56;3.63;;;1.48;;
46348;SDS011;32057;47.830;19.046;2023-10-08T07:44:24;3.35;;;1.90;;
46348;SDS011;32057;47.830;19.046;2023-10-08T07:46:51;5.38;;;1.20;;
46348;SDS011;32057;47.830;19.046;2023-10-08T07:49:19;6.32;;;2.85;;
46348;SDS011;32057;47.830;19.046;2023-10-08T07:51:45;3.70;;;1.50;;
46348;SDS011;32057;47.830;19.046;2023-10-08T07:56:44;4.40;;;2.35;;
46348;SDS011;32057;47.830;19.046;2023-10-08T07:59:10;2.13;;;1.20;;
46348;SDS011;32057;47.830;19.046;2023-10-08T08:01:39;1.38;;;1.23;;
46348;SDS011;32057;47.830;19.046;2023-10-08T08:04:07;9.82;;;2.10;;
46348;SDS011;32057;47.830;19.046;2023-10-08T08:06:37;4.50;;;1.60;;
46348;SDS011;32057;47.830;19.046;2023-10-08T08:09:03;1.27;;;1.15;;
46348;SDS011;32057;47.830;19.046;2023-10-08T08:11:43;1.42;;;1.23;;
46348;SDS011;32057;47.830;19.046;2023-10-08T08:14:11;5.82;;;1.80;;
46348;SDS011;32057;47.830;19.046;2023-10-08T08:16:36;2.95;;;1.67;;
46348;SDS011;32057;47.830;19.046;2023-10-08T08:19:02;3.08;;;1.13;;
46348;SDS011;32057;47.830;19.046;2023-10-08T08:21:28;4.63;;;1.90;;
46348;SDS011;32057;47.830;19.046;2023-10-08T08:23:55;4.40;;;1.85;;
46348;SDS011;32057;47.830;19.046;2023-10-08T08:26:29;3.70;;;2.05;;
46348;SDS011;32057;47.830;19.046;2023-10-08T08:28:57;1.75;;;1.27;;
46348;SDS011;32057;47.830;19.046;2023-10-08T08:31:25;3.05;;;1.67;;
46348;SDS011;32057;47.830;19.046;2023-10-08T08:33:51;3.53;;;1.83;;
46348;SDS011;32057;47.830;19.046;2023-10-08T08:36:22;1.45;;;1.35;;
46348;SDS011;32057;47.830;19.046;2023-10-08T08:38:49;0.98;;;0.90;;
46348;SDS011;32057;47.830;19.046;2023-10-08T08:41:15;10.05;;;1.67;;
46348;SDS011;32057;47.830;19.046;2023-10-08T08:43:46;28.42;;;5.53;;
46348;SDS011;32057;47.830;19.046;2023-10-08T08:46:13;2.47;;;1.30;;
46348;SDS011;32057;47.830;19.046;2023-10-08T08:48:40;2.83;;;1.17;;
46348;SDS011;32057;47.830;19.046;2023-10-08T08:51:06;5.10;;;3.58;;
46348;SDS011;32057;47.830;19.046;2023-10-08T08:53:32;14.75;;;4.05;;
46348;SDS011;32057;47.830;19.046;2023-10-08T08:55:59;5.18;;;1.70;;
46348;SDS011;32057;47.830;19.046;2023-10-08T08:58:29;2.10;;;1.27;;
46348;SDS011;32057;47.830;19.046;2023-10-08T09:00:57;3.03;;;1.75;;
46348;SDS011;32057;47.830;19.046;2023-10-08T09:03:24;4.43;;;1.33;;
46348;SDS011;32057;47.830;19.046;2023-10-08T09:05:55;4.35;;;1.23;;
46348;SDS011;32057;47.830;19.046;2023-10-08T09:08:21;2.90;;;1.70;;
46348;SDS011;32057;47.830;19.046;2023-10-08T09:10:49;2.60;;;1.40;;
46348;SDS011;32057;47.830;19.046;2023-10-08T09:13:19;2.08;;;1.27;;
46348;SDS011;32057;47.830;19.046;2023-10-08T09:15:47;1.17;;;1.05;;
46348;SDS011;32057;47.830;19.046;2023-10-08T09:18:13;6.25;;;1.27;;
46348;SDS011;32057;47.830;19.046;2023-10-08T09:20:39;12.02;;;1.98;;
46348;SDS011;32057;47.830;19.046;2023-10-08T09:23:15;0.70;;;0.63;;
46348;SDS011;32057;47.830;19.046;2023-10-08T09:25:45;4.28;;;1.20;;
46348;SDS011;32057;47.830;19.046;2023-10-08T09:28:15;0.38;;;0.38;;
46348;SDS011;32057;47.830;19.046;2023-10-08T09:30:42;0.50;;;0.50;;
46348;SDS011;32057;47.830;19.046;2023-10-08T09:33:11;0.43;;;0.43;;
46348;SDS011;32057;47.830;19.046;2023-10-08T09:35:37;0.30;;;0.30;;
46348;SDS011;32057;47.830;19.046;2023-10-08T09:38:04;1.08;;;0.40;;
46348;SDS011;32057;47.830;19.046;2023-10-08T09:43:02;0.47;;;0.40;;
46348;SDS011;32057;47.830;19.046;2023-10-08T09:45:29;0.90;;;0.63;;
46348;SDS011;32057;47.830;19.046;2023-10-08T09:47:55;1.75;;;1.10;;
46348;SDS011;32057;47.830;19.046;2023-10-08T09:50:28;0.90;;;0.40;;
46348;SDS011;32057;47.830;19.046;2023-10-08T09:55:26;0.38;;;0.38;;
46348;SDS011;32057;47.830;19.046;2023-10-08T09:57:52;0.57;;;0.43;;
46348;SDS011;32057;47.830;19.046;2023-10-08T10:00:20;0.20;;;0.20;;
46348;SDS011;32057;47.830;19.046;2023-10-08T10:02:55;0.50;;;0.50;;
46348;SDS011;32057;47.830;19.046;2023-10-08T10:05:23;0.93;;;0.50;;
46348;SDS011;32057;47.830;19.046;2023-10-08T10:08:03;0.28;;;0.28;;
46348;SDS011;32057;47.830;19.046;2023-10-08T10:10:33;0.70;;;0.68;;
46348;SDS011;32057;47.830;19.046;2023-10-08T10:13:03;0.30;;;0.30;;
46348;SDS011;32057;47.830;19.046;2023-10-08T10:15:29;1.27;;;0.65;;
46348;SDS011;32057;47.830;19.046;2023-10-08T10:18:08;2.35;;;0.45;;
46348;SDS011;32057;47.830;19.046;2023-10-08T10:20:39;1.03;;;0.60;;
46348;SDS011;32057;47.830;19.046;2023-10-08T10:23:56;0.25;;;0.25;;
46348;SDS011;32057;47.830;19.046;2023-10-08T10:26:05;0.63;;;0.50;;
46348;SDS011;32057;47.830;19.046;2023-10-08T10:29:33;1.08;;;0.63;;
46348;SDS011;32057;47.830;19.046;2023-10-08T10:31:41;0.90;;;0.50;;
46348;SDS011;32057;47.830;19.046;2023-10-08T10:34:12;0.93;;;0.50;;
46348;SDS011;32057;47.830;19.046;2023-10-08T10:36:41;0.90;;;0.60;;
46348;SDS011;32057;47.830;19.046;2023-10-08T10:39:07;0.50;;;0.20;;
46348;SDS011;32057;47.830;19.046;2023-10-08T10:41:51;0.47;;;0.43;;
46348;SDS011;32057;47.830;19.046;2023-10-08T10:44:22;4.15;;;0.65;;
46348;SDS011;32057;47.830;19.046;2023-10-08T10:46:48;0.20;;;0.20;;
46348;SDS011;32057;47.830;19.046;2023-10-08T10:49:25;1.08;;;0.22;;
46348;SDS011;32057;47.830;19.046;2023-10-08T10:51:57;0.25;;;0.25;;
46348;SDS011;32057;47.830;19.046;2023-10-08T10:54:23;0.65;;;0.45;;
46348;SDS011;32057;47.830;19.046;2023-10-08T10:56:50;1.27;;;0.28;;
46348;SDS011;32057;47.830;19.046;2023-10-08T10:59:30;0.30;;;0.30;;
46348;SDS011;32057;47.830;19.046;2023-10-08T11:02:05;0.20;;;0.20;;
46348;SDS011;32057;47.830;19.046;2023-10-08T11:04:34;0.93;;;0.30;;
46348;SDS011;32057;47.830;19.046;2023-10-08T11:07:19;0.10;;;0.10;;
46348;SDS011;32057;47.830;19.046;2023-10-08T11:09:49;0.15;;;0.15;;
46348;SDS011;32057;47.830;19.046;2023-10-08T11:12:17;0.13;;;0.13;;
46348;SDS011;32057;47.830;19.046;2023-10-08T11:14:57;0.20;;;0.20;;
46348;SDS011;32057;47.830;19.046;2023-10-08T11:17:24;0.13;;;0.13;;
46348;SDS011;32057;47.830;19.046;2023-10-08T11:19:50;0.20;;;0.20;;
46348;SDS011;32057;47.830;19.046;2023-10-08T11:22:16;0.20;;;0.20;;
46348;SDS011;32057;47.830;19.046;2023-10-08T11:24:43;0.25;;;0.20;;
46348;SDS011;32057;47.830;19.046;2023-10-08T11:27:12;0.20;;;0.20;;
46348;SDS011;32057;47.830;19.046;2023-10-08T11:29:46;1.40;;;0.50;;
46348;SDS011;32057;47.830;19.046;2023-10-08T11:32:13;0.10;;;0.10;;
46348;SDS011;32057;47.830;19.046;2023-10-08T11:34:47;0.17;;;0.17;;
46348;SDS011;32057;47.830;19.046;2023-10-08T11:39:54;0.28;;;0.28;;
46348;SDS011;32057;47.830;19.046;2023-10-08T11:42:23;0.45;;;0.45;;
46348;SDS011;32057;47.830;19.046;2023-10-08T11:44:58;0.20;;;0.20;;
46348;SDS011;32057;47.830;19.046;2023-10-08T11:47:42;0.28;;;0.28;;
46348;SDS011;32057;47.830;19.046;2023-10-08T11:50:09;0.30;;;0.30;;
46348;SDS011;32057;47.830;19.046;2023-10-08T11:52:38;0.20;;;0.20;;
46348;SDS011;32057;47.830;19.046;2023-10-08T11:55:07;0.20;;;0.20;;
46348;SDS011;32057;47.830;19.046;2023-10-08T11:57:34;0.20;;;0.20;;
46348;SDS011;32057;47.830;19.046;2023-10-08T12:00:10;0.20;;;0.20;;
46348;SDS011;32057;47.830;19.046;2023-10-08T12:02:48;0.60;;;0.20;;
46348;SDS011;32057;47.830;19.046;2023-10-08T12:05:14;0.32;;;0.30;;
46348;SDS011;32057;47.830;19.046;2023-10-08T12:07:48;0.30;;;0.30;;
46348;SDS011;32057;47.830;19.046;2023-10-08T12:10:17;0.73;;;0.40;;
46348;SDS011;32057;47.830;19.046;2023-10-08T12:12:48;0.50;;;0.50;;
46348;SDS011;32057;47.830;19.046;2023-10-08T12:15:14;0.20;;;0.20;;
46348;SDS011;32057;47.830;19.046;2023-10-08T12:17:53;0.30;;;0.30;;
46348;SDS011;32057;47.830;19.046;2023-10-08T12:20:38;0.38;;;0.38;;
46348;SDS011;32057;47.830;19.046;2023-10-08T12:23:04;0.22;;;0.22;;
46348;SDS011;32057;47.830;19.046;2023-10-08T12:25:36;0.20;;;0.20;;
46348;SDS011;32057;47.830;19.046;2023-10-08T12:28:02;0.35;;;0.22;;
46348;SDS011;32057;47.830;19.046;2023-10-08T12:30:32;0.40;;;0.40;;
46348;SDS011;32057;47.830;19.046;2023-10-08T12:33:06;0.20;;;0.20;;
46348;SDS011;32057;47.830;19.046;2023-10-08T12:35:32;0.57;;;0.30;;
46348;SDS011;32057;47.830;19.046;2023-10-08T12:37:57;0.20;;;0.20;;
46348;SDS011;32057;47.830;19.046;2023-10-08T12:40:23;0.45;;;0.30;;
46348;SDS011;32057;47.830;19.046;2023-10-08T12:42:51;0.22;;;0.22;;
46348;SDS011;32057;47.830;19.046;2023-10-08T12:45:18;0.22;;;0.22;;
46348;SDS011;32057;47.830;19.046;2023-10-08T12:47:47;0.30;;;0.30;;
46348;SDS011;32057;47.830;19.046;2023-10-08T12:50:14;0.30;;;0.30;;
46348;SDS011;32057;47.830;19.046;2023-10-08T12:52:42;0.22;;;0.22;;
46348;SDS011;32057;47.830;19.046;2023-10-08T12:55:17;5.13;;;0.50;;
46348;SDS011;32057;47.830;19.046;2023-10-08T12:57:49;0.60;;;0.45;;
46348;SDS011;32057;47.830;19.046;2023-10-08T13:00:23;0.30;;;0.30;;
46348;SDS011;32057;47.830;19.046;2023-10-08T13:02:51;0.30;;;0.30;;
46348;SDS011;32057;47.830;19.046;2023-10-08T13:05:21;0.20;;;0.20;;
46348;SDS011;32057;47.830;19.046;2023-10-08T13:07:57;0.45;;;0.45;;
46348;SDS011;32057;47.830;19.046;2023-10-08T13:10:28;0.30;;;0.30;;
46348;SDS011;32057;47.830;19.046;2023-10-08T13:12:56;0.52;;;0.40;;
46348;SDS011;32057;47.830;19.046;2023-10-08T13:15:22;0.20;;;0.20;;
46348;SDS011;32057;47.830;19.046;2023-10-08T13:17:51;0.22;;;0.22;;
46348;SDS011;32057;47.830;19.046;2023-10-08T13:20:19;2.13;;;0.40;;
46348;SDS011;32057;47.830;19.046;2023-10-08T13:22:46;0.20;;;0.20;;
46348;SDS011;32057;47.830;19.046;2023-10-08T13:25:12;0.60;;;0.60;;
46348;SDS011;32057;47.830;19.046;2023-10-08T13:27:40;0.93;;;0.63;;
46348;SDS011;32057;47.830;19.046;2023-10-08T13:30:06;0.30;;;0.30;;
46348;SDS011;32057;47.830;19.046;2023-10-08T13:32:34;0.25;;;0.25;;
46348;SDS011;32057;47.830;19.046;2023-10-08T13:35:02;0.30;;;0.30;;
46348;SDS011;32057;47.830;19.046;2023-10-08T13:37:29;0.20;;;0.20;;
46348;SDS011;32057;47.830;19.046;2023-10-08T13:39:56;1.38;;;0.45;;
46348;SDS011;32057;47.830;19.046;2023-10-08T13:42:22;2.03;;;0.75;;
46348;SDS011;32057;47.830;19.046;2023-10-08T13:44:47;0.45;;;0.45;;
46348;SDS011;32057;47.830;19.046;2023-10-08T13:47:13;0.88;;;0.40;;
46348;SDS011;32057;47.830;19.046;2023-10-08T13:49:40;0.35;;;0.35;;
46348;SDS011;32057;47.830;19.046;2023-10-08T13:52:08;0.50;;;0.50;;
46348;SDS011;32057;47.830;19.046;2023-10-08T13:54:34;0.73;;;0.73;;
46348;SDS011;32057;47.830;19.046;2023-10-08T13:57:04;6.00;;;1.77;;
46348;SDS011;32057;47.830;19.046;2023-10-08T13:59:33;1.02;;;1.02;;
46348;SDS011;32057;47.830;19.046;2023-10-08T14:01:59;1.00;;;0.70;;
46348;SDS011;32057;47.830;19.046;2023-10-08T14:04:26;1.40;;;0.88;;
46348;SDS011;32057;47.830;19.046;2023-10-08T14:06:55;0.60;;;0.60;;
46348;SDS011;32057;47.830;19.046;2023-10-08T14:09:23;0.60;;;0.60;;
46348;SDS011;32057;47.830;19.046;2023-10-08T14:12:02;0.60;;;0.50;;
46348;SDS011;32057;47.830;19.046;2023-10-08T14:14:28;0.47;;;0.40;;
46348;SDS011;32057;47.830;19.046;2023-10-08T14:16:58;0.98;;;0.50;;
46348;SDS011;32057;47.830;19.046;2023-10-08T14:19:28;1.25;;;0.80;;
46348;SDS011;32057;47.830;19.046;2023-10-08T14:22:01;5.85;;;0.73;;
46348;SDS011;32057;47.830;19.046;2023-10-08T14:24:29;0.60;;;0.60;;
46348;SDS011;32057;47.830;19.046;2023-10-08T14:27:00;0.68;;;0.65;;
46348;SDS011;32057;47.830;19.046;2023-10-08T14:29:28;2.17;;;0.65;;
46348;SDS011;32057;47.830;19.046;2023-10-08T14:31:54;0.85;;;0.65;;
46348;SDS011;32057;47.830;19.046;2023-10-08T14:34:22;0.40;;;0.40;;
46348;SDS011;32057;47.830;19.046;2023-10-08T14:37:17;1.08;;;0.80;;
46348;SDS011;32057;47.830;19.046;2023-10-08T14:40:01;1.05;;;0.55;;
46348;SDS011;32057;47.830;19.046;2023-10-08T14:42:45;0.60;;;0.40;;
46348;SDS011;32057;47.830;19.046;2023-10-08T14:45:30;1.10;;;0.82;;
46348;SDS011;32057;47.830;19.046;2023-10-08T14:47:57;1.65;;;0.70;;
46348;SDS011;32057;47.830;19.046;2023-10-08T14:50:23;0.90;;;0.75;;
46348;SDS011;32057;47.830;19.046;2023-10-08T14:52:56;1.02;;;0.90;;
46348;SDS011;32057;47.830;19.046;2023-10-08T14:55:22;0.70;;;0.70;;
46348;SDS011;32057;47.830;19.046;2023-10-08T14:57:49;0.60;;;0.60;;
46348;SDS011;32057;47.830;19.046;2023-10-08T15:00:18;1.95;;;1.00;;
46348;SDS011;32057;47.830;19.046;2023-10-08T15:02:51;1.10;;;0.63;;
46348;SDS011;32057;47.830;19.046;2023-10-08T15:05:19;0.70;;;0.70;;
46348;SDS011;32057;47.830;19.046;2023-10-08T15:07:45;0.60;;;0.60;;
46348;SDS011;32057;47.830;19.046;2023-10-08T15:10:11;0.85;;;0.50;;